createdAt,value
2023-03-30T00:13:36.875Z,99986.16
2023-03-30T00:16:06.224Z,99980.19
2023-03-30T00:18:34.678Z,99976.94
2023-03-30T00:21:05.149Z,99968.56
2023-03-30T00:23:33.888Z,99974.06
2023-03-30T00:26:01.979Z,99970.56
2023-03-30T00:28:31.784Z,99972.91
2023-03-30T00:30:59.940Z,99971.34
2023-03-30T00:33:43.880Z,99959.25
2023-03-30T00:36:15.658Z,99965.75
2023-03-30T00:38:44.313Z,99975.78
2023-03-30T00:41:12.597Z,99967.16
2023-03-30T00:43:59.612Z,99969.25
2023-03-30T00:46:28.504Z,99960.03
2023-03-30T00:48:59.915Z,99959.28
2023-03-30T00:51:29.728Z,99938.47
2023-03-30T00:54:02.468Z,99943.09
2023-03-30T00:56:31.846Z,99945.91
2023-03-30T00:59:01.534Z,99939.50
2023-03-30T01:01:30.532Z,99934.69
2023-03-30T01:04:02.114Z,99936.41
2023-03-30T01:06:33.855Z,99938.25
2023-03-30T01:09:02.493Z,99935.16
2023-03-30T01:11:30.347Z,99926.13
2023-03-30T01:14:03.363Z,99916.53
2023-03-30T01:16:41.014Z,99925.25
2023-03-30T01:19:43.662Z,99917.03
2023-03-30T01:22:56.646Z,99924.59
2023-03-30T01:25:48.355Z,99925.47
2023-03-30T01:28:26.458Z,99925.53
2023-03-30T01:31:25.612Z,99918.94
2023-03-30T01:34:23.718Z,99921.66
2023-03-30T01:37:15.820Z,99923.63
2023-03-30T01:39:56.298Z,99918.13
2023-03-30T01:42:33.616Z,99913.78
2023-03-30T01:45:10.903Z,99913.06
2023-03-30T01:47:43.547Z,99914.78
2023-03-30T01:50:15.697Z,99901.84
2023-03-30T01:52:53.700Z,99906.56
2023-03-30T01:55:27.816Z,99876.13
2023-03-30T01:58:00.963Z,99902.59
2023-03-30T02:00:30.213Z,99902.19
2023-03-30T02:03:05.598Z,99900.59
2023-03-30T02:05:35.814Z,99904.00
2023-03-30T02:08:08.941Z,99912.53
2023-03-30T02:10:41.295Z,99914.25
2023-03-30T02:13:09.659Z,99911.88
2023-03-30T02:15:41.126Z,99914.44
2023-03-30T02:18:09.953Z,99901.69
2023-03-30T02:20:38.226Z,99923.97
2023-03-30T02:23:07.686Z,99917.38
2023-03-30T02:25:38.625Z,99917.91
2023-03-30T02:28:08.588Z,99908.53
2023-03-30T02:30:40.630Z,99916.59
2023-03-30T02:33:11.041Z,99913.19
2023-03-30T02:35:57.922Z,99911.00
2023-03-30T02:38:41.817Z,99917.66
2023-03-30T02:41:22.449Z,99914.81
2023-03-30T02:44:01.473Z,99921.63
2023-03-30T02:46:51.381Z,99927.47
2023-03-30T02:49:34.148Z,99914.25
2023-03-30T02:52:16.749Z,99910.31
2023-03-30T02:54:51.723Z,99895.91
2023-03-30T02:57:30.008Z,99906.44
2023-03-30T03:00:19.859Z,99910.47
2023-03-30T03:02:52.453Z,99908.06
2023-03-30T03:05:28.583Z,99899.38
2023-03-30T03:08:16.548Z,99893.63
2023-03-30T03:10:46.520Z,99905.25
2023-03-30T03:13:16.273Z,99902.66
2023-03-30T03:15:49.542Z,99894.41
2023-03-30T03:18:18.618Z,99893.44
2023-03-30T03:20:47.279Z,99903.47
2023-03-30T03:23:15.382Z,99906.97
2023-03-30T03:25:50.340Z,99905.50
2023-03-30T03:28:20.600Z,99897.06
2023-03-30T03:30:53.362Z,99899.84
2023-03-30T03:33:24.853Z,99896.91
2023-03-30T03:36:00.844Z,99897.78
2023-03-30T03:38:31.219Z,99896.91
2023-03-30T03:41:00.911Z,99893.66
2023-03-30T03:43:30.860Z,99897.03
2023-03-30T03:46:00.456Z,99897.03
2023-03-30T03:48:28.529Z,99898.75
2023-03-30T03:50:58.450Z,99902.72
2023-03-30T03:53:29.608Z,99896.75
2023-03-30T03:56:04.157Z,99883.72
2023-03-30T03:58:32.772Z,99887.28
2023-03-30T04:01:03.284Z,99892.41
2023-03-30T04:03:31.595Z,99888.97
2023-03-30T04:06:01.141Z,99891.94
2023-03-30T04:08:29.606Z,99891.78
2023-03-30T04:11:08.910Z,99887.28
2023-03-30T04:13:55.153Z,99888.84
2023-03-30T04:16:44.993Z,99884.66
2023-03-30T04:19:33.339Z,99875.56
2023-03-30T04:22:25.689Z,99874.56
2023-03-30T04:25:16.676Z,99879.69
2023-03-30T04:28:05.168Z,99882.81
2023-03-30T04:30:58.956Z,99887.44
2023-03-30T04:33:51.935Z,99879.06
2023-03-30T04:36:44.311Z,99878.22
2023-03-30T04:39:30.433Z,99870.34
2023-03-30T04:42:30.285Z,99867.44
2023-03-30T04:45:18.298Z,99866.66
2023-03-30T04:48:01.480Z,99864.09
2023-03-30T04:50:50.847Z,99856.44
2023-03-30T04:53:30.940Z,99854.72
2023-03-30T04:56:14.842Z,99852.97
2023-03-30T04:59:05.705Z,99844.03
2023-03-30T05:01:51.985Z,99836.75
2023-03-30T05:04:19.964Z,99840.16
2023-03-30T05:07:08.953Z,99840.47
2023-03-30T05:09:49.764Z,99840.13
2023-03-30T05:12:17.630Z,99839.50
2023-03-30T05:15:09.720Z,99840.56
2023-03-30T05:18:13.133Z,99846.56
2023-03-30T05:21:04.565Z,99844.66
2023-03-30T05:23:52.844Z,99854.97
2023-03-30T05:26:41.325Z,99843.31
2023-03-30T05:29:26.330Z,99846.75
2023-03-30T05:32:06.227Z,99834.59
2023-03-30T05:34:52.740Z,99828.53
2023-03-30T05:37:43.527Z,99837.16
2023-03-30T05:40:27.841Z,99839.03
2023-03-30T05:43:22.676Z,99839.47
2023-03-30T05:45:51.099Z,99839.75
2023-03-30T05:48:32.297Z,99830.25
2023-03-30T05:51:29.636Z,99837.34
2023-03-30T05:54:16.629Z,99837.22
2023-03-30T05:57:10.346Z,99822.47
2023-03-30T06:00:02.324Z,99825.31
2023-03-30T06:02:53.705Z,99827.41
2023-03-30T06:05:24.384Z,99823.13
2023-03-30T06:07:52.533Z,99825.69
2023-03-30T06:10:20.474Z,99825.97
2023-03-30T06:12:50.574Z,99825.19
2023-03-30T06:15:47.681Z,99826.13
2023-03-30T06:18:20.556Z,99818.28
2023-03-30T06:21:07.143Z,99807.16
2023-03-30T06:23:49.012Z,99813.59
2023-03-30T06:26:21.309Z,99810.44
2023-03-30T06:28:51.919Z,99802.97
2023-03-30T06:31:20.181Z,99801.41
2023-03-30T06:33:54.369Z,99806.38
2023-03-30T06:36:22.327Z,99804.59
2023-03-30T06:39:10.422Z,99801.03
2023-03-30T06:41:38.364Z,99791.06
2023-03-30T06:44:10.396Z,99795.25
2023-03-30T06:46:41.032Z,99789.38
2023-03-30T06:49:09.637Z,99794.34
2023-03-30T06:51:47.185Z,99804.16
2023-03-30T06:54:20.035Z,99798.31
2023-03-30T06:56:54.969Z,99799.31
2023-03-30T06:59:25.559Z,99806.13
2023-03-30T07:02:14.383Z,99816.78
2023-03-30T07:05:10.114Z,99810.31
2023-03-30T07:07:54.636Z,99809.41
2023-03-30T07:10:23.383Z,99801.25
2023-03-30T07:12:51.657Z,99809.06
2023-03-30T07:15:24.661Z,99809.47
2023-03-30T07:17:53.392Z,99797.34
2023-03-30T07:20:21.444Z,99804.50
2023-03-30T07:23:04.917Z,99810.38
2023-03-30T07:25:32.931Z,99799.44
2023-03-30T07:28:07.249Z,99803.63
2023-03-30T07:30:37.580Z,99798.72
2023-03-30T07:33:07.347Z,99795.78
2023-03-30T07:35:35.642Z,99792.59
2023-03-30T07:38:07.430Z,99792.41
2023-03-30T07:40:40.422Z,99789.00
2023-03-30T07:43:09.082Z,99793.38
2023-03-30T07:45:38.824Z,99791.03
2023-03-30T07:48:09.474Z,99786.72
2023-03-30T07:50:37.591Z,99787.63
2023-03-30T07:53:05.589Z,99786.69
2023-03-30T07:55:33.719Z,99782.19
2023-03-30T07:58:08.894Z,99778.53
2023-03-30T08:00:38.465Z,99773.56
2023-03-30T08:03:45.077Z,99775.16
2023-03-30T08:06:13.409Z,99786.06
2023-03-30T08:08:43.432Z,99796.03
2023-03-30T08:11:15.402Z,99806.75
2023-03-30T08:13:44.565Z,99800.91
2023-03-30T08:16:14.155Z,99794.97
2023-03-30T08:18:42.485Z,99795.09
2023-03-30T08:21:11.067Z,99795.09
2023-03-30T08:23:39.007Z,99788.88
2023-03-30T08:26:07.889Z,99775.41
2023-03-30T08:28:36.577Z,99777.31
2023-03-30T08:31:06.658Z,99789.38
2023-03-30T08:33:36.366Z,99796.44
2023-03-30T08:36:05.075Z,99801.81
2023-03-30T08:38:33.445Z,99798.06
2023-03-30T08:41:01.636Z,99807.75
2023-03-30T08:43:50.773Z,99814.97
2023-03-30T08:46:21.105Z,99813.09
2023-03-30T08:48:53.228Z,99822.50
2023-03-30T08:51:24.773Z,99810.00
2023-03-30T08:53:56.769Z,99805.03
2023-03-30T08:56:28.529Z,99792.28
2023-03-30T08:59:10.335Z,99787.59
2023-03-30T09:01:46.989Z,99778.34
2023-03-30T09:04:25.946Z,99768.44
2023-03-30T09:06:56.146Z,99773.44
2023-03-30T09:09:28.708Z,99759.44
2023-03-30T09:12:03.103Z,99740.03
2023-03-30T09:14:36.616Z,99734.19
2023-03-30T09:17:10.116Z,99733.97
2023-03-30T09:19:49.327Z,99737.53
2023-03-30T09:22:20.693Z,99741.69
2023-03-30T09:24:51.495Z,99745.00
2023-03-30T09:27:27.013Z,99736.66
2023-03-30T09:30:02.496Z,99735.72
2023-03-30T09:32:33.601Z,99730.66
2023-03-30T09:35:07.780Z,99727.94
2023-03-30T09:37:37.417Z,99724.72
2023-03-30T09:40:21.920Z,99710.88
2023-03-30T09:42:58.923Z,99724.94
2023-03-30T09:45:32.044Z,99712.84
2023-03-30T09:48:05.040Z,99712.34
2023-03-30T09:50:39.549Z,99705.94
2023-03-30T09:53:19.297Z,99715.13
2023-03-30T09:55:59.978Z,99713.47
2023-03-30T09:58:29.583Z,99709.53
2023-03-30T10:01:08.407Z,99710.56
2023-03-30T10:03:37.278Z,99700.69
2023-03-30T10:06:10.286Z,99688.31
2023-03-30T10:08:43.817Z,99683.28
2023-03-30T10:11:12.200Z,99643.78
2023-03-30T10:13:43.498Z,99653.41
2023-03-30T10:16:22.704Z,99652.22
2023-03-30T10:18:54.316Z,99653.41
2023-03-30T10:21:27.082Z,99659.19
2023-03-30T10:24:05.131Z,99663.19
2023-03-30T10:26:34.751Z,99660.81
2023-03-30T10:29:05.152Z,99655.13
2023-03-30T10:31:36.721Z,99652.53
2023-03-30T10:34:07.300Z,99653.34
2023-03-30T10:36:40.699Z,99655.81
2023-03-30T10:39:14.178Z,99648.31
2023-03-30T10:41:43.172Z,99634.97
2023-03-30T10:44:23.391Z,99629.72
2023-03-30T10:46:54.518Z,99623.91
2023-03-30T10:49:36.027Z,99624.81
2023-03-30T10:52:13.726Z,99613.94
2023-03-30T10:54:48.251Z,99613.09
2023-03-30T10:57:18.916Z,99608.31
2023-03-30T11:00:04.385Z,99609.44
2023-03-30T11:02:46.169Z,99602.06
2023-03-30T11:05:18.456Z,99597.22
2023-03-30T11:07:52.156Z,99598.19
2023-03-30T11:10:22.288Z,99600.69
2023-03-30T11:12:55.762Z,99609.75
2023-03-30T11:15:27.977Z,99612.94
2023-03-30T11:18:03.335Z,99606.28
2023-03-30T11:20:34.972Z,99602.84
2023-03-30T11:23:12.648Z,99594.53
2023-03-30T11:25:50.585Z,99591.06
2023-03-30T11:28:23.744Z,99581.59
2023-03-30T11:30:59.343Z,99583.81
2023-03-30T11:33:37.089Z,99582.03
2023-03-30T11:36:18.668Z,99588.94
2023-03-30T11:38:56.560Z,99587.59
2023-03-30T11:41:32.958Z,99582.91
2023-03-30T11:44:01.007Z,99586.38
2023-03-30T11:46:36.563Z,99547.00
2023-03-30T11:49:21.152Z,99567.59
2023-03-30T11:52:05.405Z,99556.91
2023-03-30T11:55:02.336Z,99556.81
2023-03-30T11:57:38.007Z,99546.91
2023-03-30T12:00:25.979Z,99536.94
2023-03-30T12:03:06.580Z,99542.72
2023-03-30T12:05:37.617Z,99544.31
2023-03-30T12:08:23.238Z,99538.44
2023-03-30T12:10:57.253Z,99549.31
2023-03-30T12:13:28.393Z,99545.06
2023-03-30T12:16:04.633Z,99545.06
2023-03-30T12:18:41.140Z,99542.59
2023-03-30T12:21:31.502Z,99537.47
2023-03-30T12:24:07.349Z,99530.63
2023-03-30T12:26:37.957Z,99528.88
2023-03-30T12:29:52.730Z,99522.03
2023-03-30T12:32:19.814Z,99513.63
2023-03-30T12:34:47.800Z,99517.72
2023-03-30T12:37:19.230Z,99508.47
2023-03-30T12:39:49.978Z,99495.06
2023-03-30T12:42:34.543Z,99495.81
2023-03-30T12:45:23.732Z,99490.81
2023-03-30T12:48:15.085Z,99490.94
2023-03-30T12:50:55.551Z,99476.00
2023-03-30T12:53:41.099Z,99461.03
2023-03-30T12:56:23.165Z,99451.09
2023-03-30T12:59:14.926Z,99444.50
2023-03-30T13:02:01.608Z,99446.19
2023-03-30T13:04:34.212Z,99443.66
2023-03-30T13:07:05.080Z,99441.19
2023-03-30T13:09:36.519Z,99427.00
2023-03-30T13:12:22.648Z,99421.16
2023-03-30T13:14:59.393Z,99425.47
2023-03-30T13:17:27.971Z,99434.84
2023-03-30T13:20:29.013Z,99436.69
2023-03-30T13:23:06.420Z,99434.31
2023-03-30T13:25:41.814Z,99430.22
2023-03-30T13:28:46.457Z,99439.44
2023-03-30T13:31:33.329Z,99441.94
2023-03-30T13:34:14.513Z,99446.91
2023-03-30T13:36:49.500Z,99443.53
2023-03-30T13:39:23.936Z,99434.97
2023-03-30T13:42:00.832Z,99443.13
2023-03-30T13:44:48.493Z,99434.47
2023-03-30T13:47:38.238Z,99425.78
2023-03-30T13:50:17.224Z,99433.03
2023-03-30T13:52:47.762Z,99438.72
2023-03-30T13:55:20.180Z,99448.56
2023-03-30T13:57:48.478Z,99453.47
2023-03-30T14:00:40.123Z,99439.94
2023-03-30T14:03:32.531Z,99447.44
2023-03-30T14:06:03.934Z,99454.81
2023-03-30T14:08:35.785Z,99449.59
2023-03-30T14:11:15.371Z,99446.84
2023-03-30T14:13:44.614Z,99447.56
2023-03-30T14:16:18.356Z,99453.25
2023-03-30T14:18:48.386Z,99453.97
2023-03-30T14:21:19.784Z,99452.19
2023-03-30T14:23:52.401Z,99451.34
2023-03-30T14:26:26.398Z,99435.38
2023-03-30T14:28:58.788Z,99425.31
2023-03-30T14:31:27.721Z,99431.97
2023-03-30T14:33:57.052Z,99422.81
2023-03-30T14:36:25.576Z,99417.03
2023-03-30T14:38:55.079Z,99418.84
2023-03-30T14:41:25.032Z,99418.91
2023-03-30T14:43:56.954Z,99408.09
2023-03-30T14:46:28.623Z,99398.13
2023-03-30T14:48:58.952Z,99410.69
2023-03-30T14:51:28.453Z,99399.78
2023-03-30T14:53:57.812Z,99403.88
2023-03-30T14:56:28.061Z,99409.59
2023-03-30T14:58:56.979Z,99417.97
2023-03-30T15:01:31.234Z,99416.97
2023-03-30T15:04:07.319Z,99411.78
2023-03-30T15:06:37.531Z,99409.09
2023-03-30T15:09:10.463Z,99403.22
2023-03-30T15:11:40.462Z,99398.16
2023-03-30T15:14:11.962Z,99388.84
2023-03-30T15:16:40.162Z,99386.19
2023-03-30T15:19:14.860Z,99384.38
2023-03-30T15:21:43.301Z,99367.63
2023-03-30T15:24:25.967Z,99343.31
2023-03-30T15:26:56.781Z,99345.78
2023-03-30T15:29:26.500Z,99343.25
2023-03-30T15:32:01.878Z,99341.50
2023-03-30T15:34:31.946Z,99344.66
2023-03-30T15:37:00.824Z,99332.88
2023-03-30T15:39:34.197Z,99311.69
2023-03-30T15:42:04.558Z,99341.94
2023-03-30T15:44:37.005Z,99339.41
2023-03-30T15:47:07.926Z,99332.69
2023-03-30T15:49:42.022Z,99321.06
2023-03-30T15:52:14.672Z,99331.94
2023-03-30T15:54:46.289Z,99330.25
2023-03-30T15:57:20.658Z,99331.75
2023-03-30T15:59:53.151Z,99318.31
2023-03-30T16:02:23.384Z,99320.69
2023-03-30T16:04:54.364Z,99316.53
2023-03-30T16:07:24.682Z,99319.94
2023-03-30T16:09:53.321Z,99313.25
2023-03-30T16:12:25.308Z,99313.16
2023-03-30T16:14:53.507Z,99305.59
2023-03-30T16:17:21.734Z,99318.25
2023-03-30T16:19:49.754Z,99311.63
2023-03-30T16:22:19.007Z,99315.81
2023-03-30T16:24:48.223Z,99321.69
2023-03-30T16:27:16.440Z,99317.50
2023-03-30T16:29:44.813Z,99312.50
2023-03-30T16:32:12.609Z,99320.00
2023-03-30T16:35:41.825Z,99323.28
2023-03-30T16:38:14.796Z,99310.38
2023-03-30T16:40:45.015Z,99326.38
2023-03-30T16:43:12.976Z,99312.88
2023-03-30T16:45:40.953Z,99314.75
2023-03-30T16:48:09.139Z,99286.13
2023-03-30T16:50:39.371Z,99265.88
2023-03-30T16:53:08.827Z,99259.97
2023-03-30T16:55:38.651Z,99262.63
2023-03-30T16:58:07.304Z,99261.75
2023-03-30T17:00:40.561Z,99268.41
2023-03-30T17:03:08.952Z,99321.53
2023-03-30T17:05:37.222Z,99298.56
2023-03-30T17:08:07.575Z,99264.56
2023-03-30T17:10:40.765Z,99329.28
2023-03-30T17:13:09.301Z,99327.50
2023-03-30T17:15:39.078Z,99301.78
2023-03-30T17:18:09.070Z,99302.75
2023-03-30T17:20:41.592Z,99365.88
2023-03-30T17:23:11.178Z,99320.94
2023-03-30T17:25:41.914Z,99359.56
2023-03-30T17:28:12.246Z,99320.00
2023-03-30T17:30:41.838Z,99334.72
2023-03-30T17:33:12.827Z,99315.44
2023-03-30T17:35:41.144Z,99343.38
2023-03-30T17:38:09.732Z,99333.44
2023-03-30T17:40:39.054Z,99338.34
2023-03-30T17:43:10.808Z,99337.63
2023-03-30T17:45:39.944Z,99324.31
2023-03-30T17:48:12.833Z,99302.59
2023-03-30T17:50:44.208Z,99296.00
2023-03-30T17:53:13.218Z,99294.34
2023-03-30T17:55:41.555Z,99291.75
2023-03-30T17:58:18.620Z,99313.38
2023-03-30T18:00:47.828Z,99329.25
2023-03-30T18:03:16.566Z,99341.50
2023-03-30T18:05:45.790Z,99333.59
2023-03-30T18:08:17.262Z,99335.81
2023-03-30T18:10:47.885Z,99332.28
2023-03-30T18:13:18.200Z,99336.28
2023-03-30T18:15:49.262Z,99339.44
2023-03-30T18:18:22.598Z,99337.66
2023-03-30T18:20:52.393Z,99339.28
2023-03-30T18:23:21.083Z,99335.03
2023-03-30T18:25:49.282Z,99337.56
2023-03-30T18:28:20.456Z,99335.03
2023-03-30T18:30:49.290Z,99336.59
2023-03-30T18:33:17.722Z,99341.59
2023-03-30T18:35:47.567Z,99318.09
2023-03-30T18:38:18.087Z,99335.78
2023-03-30T18:40:49.332Z,99339.22
2023-03-30T18:43:18.909Z,99330.13
2023-03-30T18:45:49.501Z,99344.34
2023-03-30T18:48:21.193Z,99334.44
2023-03-30T18:50:50.886Z,99337.81
2023-03-30T18:53:20.141Z,99335.38
2023-03-30T18:55:50.124Z,99340.50
2023-03-30T18:58:21.489Z,99330.53
2023-03-30T19:00:50.575Z,99312.16
2023-03-30T19:03:19.523Z,99318.06
2023-03-30T19:05:48.551Z,99311.50
2023-03-30T19:08:19.356Z,99304.94
2023-03-30T19:10:49.249Z,99285.03
2023-03-30T19:13:20.480Z,99267.66
2023-03-30T19:15:49.620Z,99267.88
2023-03-30T19:18:17.968Z,99267.09
2023-03-30T19:20:46.701Z,99292.09
2023-03-30T19:23:16.408Z,99285.25
2023-03-30T19:25:45.517Z,99285.03
2023-03-30T19:28:14.655Z,99285.66
2023-03-30T19:30:44.391Z,99288.13
2023-03-30T19:33:16.181Z,99290.53
2023-03-30T19:35:46.067Z,99299.63
2023-03-30T19:38:14.693Z,99296.28
2023-03-30T19:40:43.084Z,99298.63
2023-03-30T19:43:11.306Z,99283.50
2023-03-30T19:45:39.697Z,99296.78
2023-03-30T19:48:09.665Z,99300.13
2023-03-30T19:50:38.507Z,99293.50
2023-03-30T19:53:06.616Z,99294.44
2023-03-30T19:55:35.766Z,99292.81
2023-03-30T19:58:03.764Z,99289.59
2023-03-30T20:00:34.672Z,99287.75
2023-03-30T20:03:02.805Z,99272.84
2023-03-30T20:05:32.211Z,99272.97
2023-03-30T20:08:07.817Z,99269.75
2023-03-30T20:10:41.536Z,99268.06
2023-03-30T20:13:09.511Z,99268.06
2023-03-30T20:15:37.365Z,99264.69
2023-03-30T20:18:05.600Z,99276.38
2023-03-30T20:20:34.930Z,99273.81
2023-03-30T20:23:04.016Z,99269.75
2023-03-30T20:25:32.025Z,99268.19
2023-03-30T20:27:59.883Z,99276.78
2023-03-30T20:30:27.813Z,99279.34
2023-03-30T20:33:06.586Z,99280.91
2023-03-30T20:35:38.272Z,99278.22
2023-03-30T20:38:08.308Z,99275.47
2023-03-30T20:40:36.626Z,99298.03
2023-03-30T20:43:09.983Z,99290.44
2023-03-30T20:45:46.008Z,99302.13
2023-03-30T20:48:25.931Z,99307.88
2023-03-30T20:50:56.789Z,99301.09
2023-03-30T20:53:25.229Z,99298.69
2023-03-30T20:55:53.200Z,99272.78
2023-03-30T20:58:22.455Z,99268.63
2023-03-30T21:00:52.005Z,99281.16
2023-03-30T21:03:20.741Z,99264.41
2023-03-30T21:05:59.280Z,99255.09
2023-03-30T21:08:29.338Z,99280.31
2023-03-30T21:10:57.229Z,99283.81
2023-03-30T21:13:25.476Z,99272.97
2023-03-30T21:15:57.248Z,99291.38
2023-03-30T21:18:25.542Z,99291.47
2023-03-30T21:20:53.887Z,99294.03
2023-03-30T21:23:22.366Z,99285.72
2023-03-30T21:25:55.013Z,99284.97
2023-03-30T21:28:22.993Z,99296.66
2023-03-30T21:30:50.832Z,99288.28
2023-03-30T21:33:18.769Z,99285.75
2023-03-30T21:35:49.758Z,99279.75
2023-03-30T21:38:18.250Z,99257.78
2023-03-30T21:41:00.634Z,99278.81
2023-03-30T21:43:30.038Z,99273.06
2023-03-30T21:45:59.719Z,99257.34
2023-03-30T21:48:29.412Z,99270.88
2023-03-30T21:50:59.969Z,99256.75
2023-03-30T21:53:28.364Z,99250.22
2023-03-30T21:55:58.224Z,99241.94
2023-03-30T21:58:27.192Z,99238.63
2023-03-30T22:01:08.599Z,99238.63
2023-03-30T22:03:40.744Z,99240.94
2023-03-30T22:06:10.515Z,99250.06
2023-03-30T22:08:38.562Z,99239.19
2023-03-30T22:11:09.543Z,99230.06
2023-03-30T22:13:37.397Z,99230.81
2023-03-30T22:16:08.140Z,99235.81
2023-03-30T22:18:36.274Z,99238.19
2023-03-30T22:21:07.837Z,99239.84
2023-03-30T22:23:36.073Z,99231.44
2023-03-30T22:26:04.251Z,99226.44
2023-03-30T22:28:33.629Z,99233.97
2023-03-30T22:31:01.441Z,99236.44
2023-03-30T22:33:29.820Z,99222.28
2023-03-30T22:35:59.810Z,99228.13
2023-03-30T22:38:27.832Z,99222.25
2023-03-30T22:41:04.599Z,99223.06
2023-03-30T22:43:36.166Z,99229.75
2023-03-30T22:46:04.501Z,99221.31
2023-03-30T22:48:33.022Z,99236.06
2023-03-30T22:51:03.055Z,99230.94
2023-03-30T22:53:31.224Z,99228.19
2023-03-30T22:55:59.162Z,99227.91
2023-03-30T22:58:27.226Z,99232.00
2023-03-30T23:01:02.081Z,99221.25
2023-03-30T23:03:30.249Z,99221.19
2023-03-30T23:06:01.715Z,99215.50
2023-03-30T23:08:30.520Z,99211.28
2023-03-30T23:11:04.795Z,99213.75
2023-03-30T23:13:37.548Z,99214.53
2023-03-30T23:16:08.013Z,99214.53
2023-03-30T23:18:36.512Z,99217.03
2023-03-30T23:21:06.985Z,99208.66
2023-03-30T23:23:35.777Z,99209.50
2023-03-30T23:26:08.348Z,99208.63
2023-03-30T23:28:38.480Z,99193.63
2023-03-30T23:31:12.474Z,99190.06
2023-03-30T23:33:41.020Z,99204.41
2023-03-30T23:36:10.454Z,99200.13
2023-03-30T23:38:38.712Z,99207.56
2023-03-30T23:41:07.690Z,99199.28
2023-03-30T23:43:35.949Z,99210.88
2023-03-30T23:46:04.348Z,99205.78
2023-03-30T23:48:34.368Z,99212.34
2023-03-30T23:51:02.727Z,99207.88
2023-03-30T23:53:30.993Z,99218.25
2023-03-30T23:55:59.809Z,99210.59
2023-03-30T23:58:27.856Z,99221.31
